Time;durP1;ratioP1;P1;durP2;ratioP2;P2;SDS_P1;SDS_P2;PMS_P1;PMS_P2;Temp;Humidity;BMP_temperature;BMP_pressure;BME280_temperature;BME280_humidity;BME280_pressure;Samples;Min_cycle;Max_cycle;Signal;HPM_P1;HPM_P2
2021/10/26 00:00:37;;;;;;;24.07;14.17;;;;;;;10.16;84.81;101854.63;4958008;28;20314;-69
2021/10/26 00:03:02;;;;;;;26.70;13.80;;;;;;;10.14;84.92;101850.13;4958164;28;20031;-68
2021/10/26 00:05:28;;;;;;;19.83;13.80;;;;;;;10.15;84.82;101860.69;4956994;28;20297;-67
2021/10/26 00:07:53;;;;;;;27.67;14.10;;;;;;;10.14;84.86;101857.97;4958198;28;20042;-68
2021/10/26 00:10:18;;;;;;;23.67;14.27;;;;;;;10.14;85.07;101860.59;4958027;28;20074;-68
2021/10/26 00:12:44;;;;;;;18.77;10.93;;;;;;;10.15;84.94;101863.28;4957842;28;20034;-68
2021/10/26 00:15:10;;;;;;;29.33;14.50;;;;;;;10.14;84.92;101868.44;4957497;28;20031;-68
2021/10/26 00:17:36;;;;;;;23.90;12.13;;;;;;;10.16;85.16;101869.44;4957704;28;20059;-67
2021/10/26 00:20:04;;;;;;;23.07;12.30;;;;;;;10.17;85.25;101871.22;4957045;29;20106;-68
2021/10/26 00:22:29;;;;;;;26.77;13.17;;;;;;;10.20;84.88;101880.94;4958037;28;20085;-68
2021/10/26 00:24:54;;;;;;;21.90;12.67;;;;;;;10.19;85.10;101868.69;4953845;28;20050;-66
2021/10/26 00:27:20;;;;;;;22.60;11.40;;;;;;;10.20;85.30;101873.97;4957579;29;20053;-67
2021/10/26 00:29:45;;;;;;;17.27;9.90;;;;;;;10.23;85.07;101874.13;4957562;28;20437;-67
2021/10/26 00:32:10;;;;;;;22.33;10.37;;;;;;;10.25;85.15;101869.84;4957930;29;20453;-68
2021/10/26 00:34:39;;;;;;;21.17;10.77;;;;;;;10.24;84.75;101872.41;4954252;29;20051;-67
2021/10/26 00:37:04;;;;;;;18.70;9.67;;;;;;;10.28;85.07;101866.50;4957841;28;20035;-67
2021/10/26 00:39:29;;;;;;;20.73;10.50;;;;;;;10.25;84.81;101880.34;4956581;29;20347;-66
2021/10/26 00:41:56;;;;;;;15.53;9.33;;;;;;;10.22;85.13;101879.28;4956222;28;20047;-66
2021/10/26 00:44:21;;;;;;;21.10;10.77;;;;;;;10.17;84.80;101882.56;4954800;28;20034;-67
2021/10/26 00:46:47;;;;;;;25.10;10.57;;;;;;;10.15;84.93;101883.34;4957780;28;20054;-67
2021/10/26 00:49:13;;;;;;;17.90;10.40;;;;;;;10.12;85.03;101886.72;4956654;28;20420;-68
2021/10/26 00:51:40;;;;;;;18.17;9.57;;;;;;;10.10;85.09;101892.69;4957203;29;20117;-68
2021/10/26 00:54:06;;;;;;;21.13;9.57;;;;;;;10.08;85.46;101892.63;4952752;28;20047;-67
2021/10/26 00:56:32;;;;;;;20.03;10.57;;;;;;;10.04;85.01;101888.06;4954720;28;20290;-68
2021/10/26 00:58:59;;;;;;;16.20;9.63;;;;;;;10.01;84.99;101894.06;4964290;28;20043;-67
2021/10/26 01:01:25;;;;;;;19.97;10.23;;;;;;;9.97;85.07;101892.09;4957706;28;20019;-66
2021/10/26 01:03:51;;;;;;;20.07;10.20;;;;;;;9.94;85.04;101889.34;4938308;29;20404;-67
2021/10/26 01:06:17;;;;;;;18.10;9.57;;;;;;;9.92;85.06;101896.25;4956936;29;20035;-67
2021/10/26 01:08:44;;;;;;;19.17;9.50;;;;;;;9.90;85.25;101904.00;4941011;28;20090;-68
2021/10/26 01:11:09;;;;;;;19.50;10.07;;;;;;;9.88;85.30;101895.19;4956997;29;20114;-67
2021/10/26 01:13:35;;;;;;;17.23;9.27;;;;;;;9.85;85.11;101884.56;4957304;28;20118;-68
2021/10/26 01:16:01;;;;;;;20.87;9.40;;;;;;;9.81;85.16;101895.72;4956847;29;20086;-68
2021/10/26 01:18:27;;;;;;;17.73;9.93;;;;;;;9.76;85.23;101897.22;4958020;29;20031;-67
2021/10/26 01:20:53;;;;;;;17.50;9.60;;;;;;;9.72;85.26;101887.44;4956884;29;20047;-67
2021/10/26 01:23:19;;;;;;;19.70;9.23;;;;;;;9.71;85.43;101891.75;4957060;29;20019;-68
2021/10/26 01:25:45;;;;;;;15.17;8.40;;;;;;;9.70;85.26;101895.19;4956961;28;20027;-67
2021/10/26 01:28:11;;;;;;;14.63;8.10;;;;;;;9.67;85.15;101900.28;4957679;28;20393;-67
2021/10/26 01:30:36;;;;;;;21.07;9.00;;;;;;;9.64;85.17;101897.50;4956600;29;20035;-68
2021/10/26 01:33:03;;;;;;;19.63;8.50;;;;;;;9.60;85.27;101893.84;4952901;28;20394;-67
2021/10/26 01:35:29;;;;;;;15.37;8.73;;;;;;;9.58;85.35;101894.56;4937965;29;20035;-67
2021/10/26 01:37:54;;;;;;;17.60;9.20;;;;;;;9.52;85.12;101889.94;4938467;29;20295;-67
2021/10/26 01:40:21;;;;;;;18.23;8.57;;;;;;;9.47;85.08;101887.09;4938254;28;20036;-67
2021/10/26 01:42:46;;;;;;;18.70;8.90;;;;;;;9.43;85.08;101884.28;4955961;29;20038;-67
2021/10/26 01:45:12;;;;;;;18.57;8.30;;;;;;;9.42;85.43;101898.16;4957400;28;20126;-67
2021/10/26 01:47:38;;;;;;;18.50;8.80;;;;;;;9.41;85.51;101896.38;4960679;29;20086;-68
2021/10/26 01:50:05;;;;;;;19.13;8.73;;;;;;;9.36;85.58;101890.91;4959489;28;20035;-67
2021/10/26 01:52:31;;;;;;;17.53;8.03;;;;;;;9.34;85.48;101897.78;4960486;28;20286;-66
2021/10/26 01:54:56;;;;;;;12.53;7.97;;;;;;;9.31;85.51;101895.91;4959635;29;20424;-67
2021/10/26 01:57:22;;;;;;;20.23;8.70;;;;;;;9.28;85.53;101906.19;4961270;28;20339;-68
2021/10/26 01:59:48;;;;;;;15.37;9.23;;;;;;;9.26;85.53;101907.84;4960700;28;20035;-68
2021/10/26 02:02:13;;;;;;;19.00;9.03;;;;;;;9.22;85.54;101905.91;4960757;28;20318;-67
2021/10/26 02:04:39;;;;;;;20.63;8.73;;;;;;;9.21;85.26;101906.69;4960132;28;20054;-67
2021/10/26 02:07:05;;;;;;;13.77;9.57;;;;;;;9.18;85.34;101909.16;4959939;29;20093;-67
2021/10/26 02:09:30;;;;;;;19.13;8.83;;;;;;;9.14;85.57;101905.50;4959748;29;20027;-66
2021/10/26 02:11:56;;;;;;;18.03;8.87;;;;;;;9.11;85.05;101907.97;4960454;28;20089;-67
2021/10/26 02:14:21;;;;;;;16.63;8.90;;;;;;;9.08;85.66;101897.34;4955476;28;20129;-67
2021/10/26 02:16:47;;;;;;;18.00;10.40;;;;;;;9.08;85.58;101907.78;4959910;29;20356;-67
2021/10/26 02:19:12;;;;;;;22.47;11.10;;;;;;;9.07;85.75;101906.00;4959586;28;20154;-66
2021/10/26 02:21:37;;;;;;;17.53;10.33;;;;;;;9.07;85.87;101904.31;4960445;29;20034;-66
2021/10/26 02:24:03;;;;;;;23.57;10.83;;;;;;;9.05;85.82;101905.03;4959980;28;20051;-67
2021/10/26 02:26:28;;;;;;;22.00;10.97;;;;;;;9.04;85.74;101911.97;4960353;28;20117;-67
2021/10/26 02:28:54;;;;;;;20.97;10.27;;;;;;;9.04;85.90;101911.97;4959444;29;20059;-66
2021/10/26 02:31:19;;;;;;;17.87;10.20;;;;;;;9.04;85.92;101909.34;4958987;28;20075;-66
2021/10/26 02:33:44;;;;;;;21.30;11.23;;;;;;;9.01;85.76;101911.81;4960096;28;20070;-66
2021/10/26 02:36:10;;;;;;;25.47;12.27;;;;;;;9.00;85.82;101914.34;4960005;28;20111;-67
2021/10/26 02:38:35;;;;;;;25.37;11.83;;;;;;;8.99;85.86;101913.47;4960035;28;20033;-67
2021/10/26 02:41:01;;;;;;;23.20;11.37;;;;;;;9.00;86.14;101920.47;4959688;28;20146;-66
2021/10/26 02:43:29;;;;;;;22.63;12.07;;;;;;;9.01;85.97;101918.75;4959770;28;20130;-67
2021/10/26 02:45:54;;;;;;;24.17;11.33;;;;;;;9.02;86.17;101913.59;4959545;28;20093;-67
2021/10/26 02:48:20;;;;;;;22.00;10.83;;;;;;;9.02;86.13;101926.66;4959419;29;20035;-67
2021/10/26 02:50:45;;;;;;;22.10;10.83;;;;;;;9.06;86.22;101922.50;4955932;29;20050;-66
2021/10/26 02:53:12;;;;;;;18.97;9.00;;;;;;;9.11;85.94;101936.72;4939702;29;20035;-68
2021/10/26 02:55:37;;;;;;;24.47;11.60;;;;;;;9.07;86.19;101927.81;4940046;29;20083;-67
2021/10/26 02:58:03;;;;;;;22.40;10.77;;;;;;;9.04;86.10;101925.03;4939615;29;20032;-66
2021/10/26 03:00:28;;;;;;;23.53;11.80;;;;;;;9.01;86.06;101923.97;4939369;29;20039;-67
2021/10/26 03:02:54;;;;;;;22.80;10.57;;;;;;;8.98;86.08;101923.81;4954952;29;20374;-67
2021/10/26 03:05:19;;;;;;;21.27;10.60;;;;;;;8.95;86.05;101932.38;4959042;29;20027;-68
2021/10/26 03:07:46;;;;;;;21.57;10.37;;;;;;;8.89;86.01;101917.28;4958944;29;20027;-67
2021/10/26 03:10:13;;;;;;;25.60;10.80;;;;;;;8.85;85.90;101917.94;4959129;28;20077;-66
2021/10/26 03:12:39;;;;;;;18.90;9.37;;;;;;;8.82;85.30;101916.91;4959895;28;20069;-67
2021/10/26 03:15:07;;;;;;;17.07;8.20;;;;;;;8.78;86.02;101915.84;4958059;28;20125;-67
2021/10/26 03:17:32;;;;;;;19.27;9.20;;;;;;;8.76;85.87;101907.00;4959814;28;20038;-66
2021/10/26 03:19:59;;;;;;;15.83;8.40;;;;;;;8.74;86.15;101909.56;4959166;28;20031;-66
2021/10/26 03:22:25;;;;;;;27.07;9.43;;;;;;;8.74;86.01;101909.56;4958637;28;20108;-67
2021/10/26 03:24:50;;;;;;;18.57;8.97;;;;;;;8.73;86.17;101914.69;4958780;28;20306;-68
2021/10/26 03:27:15;;;;;;;18.67;9.03;;;;;;;8.70;86.22;101910.19;4954993;29;20126;-66
2021/10/26 03:29:41;;;;;;;19.60;9.60;;;;;;;8.68;86.14;101909.22;4939041;29;20039;-66
2021/10/26 03:32:07;;;;;;;20.67;9.00;;;;;;;8.67;86.00;101915.28;4939623;28;20390;-67
2021/10/26 03:34:36;;;;;;;15.87;8.13;;;;;;;8.67;86.08;101917.88;4939184;29;20054;-66
2021/10/26 03:37:02;;;;;;;21.63;8.13;;;;;;;8.66;86.12;101918.72;4939641;29;20054;-67
2021/10/26 03:39:27;;;;;;;20.17;8.03;;;;;;;8.64;86.03;101908.16;4953924;29;20123;-67
2021/10/26 03:41:53;;;;;;;17.90;7.97;;;;;;;8.65;86.14;101916.88;4939680;29;20386;-66
2021/10/26 03:44:18;;;;;;;21.80;8.10;;;;;;;8.65;86.34;101929.94;4939294;29;20040;-67
2021/10/26 03:46:43;;;;;;;23.10;8.93;;;;;;;8.64;86.14;101928.16;4939073;29;20315;-67
2021/10/26 03:49:09;;;;;;;21.53;8.90;;;;;;;8.60;86.04;101921.84;4939386;29;20028;-67
2021/10/26 03:51:34;;;;;;;16.97;8.27;;;;;;;8.56;86.04;101921.63;4957550;29;20037;-66
2021/10/26 03:54:00;;;;;;;17.10;8.00;;;;;;;8.52;85.91;101933.59;4957958;29;20038;-67
2021/10/26 03:56:26;;;;;;;18.30;8.10;;;;;;;8.51;86.02;101931.81;4958707;28;20043;-67
2021/10/26 03:58:51;;;;;;;17.90;8.50;;;;;;;8.50;85.70;101929.97;4958784;28;20035;-67
2021/10/26 04:01:17;;;;;;;17.57;9.10;;;;;;;8.47;85.55;101935.94;4958055;28;20398;-69
2021/10/26 04:03:43;;;;;;;13.13;7.87;;;;;;;8.43;85.80;101939.22;4958813;28;20298;-67
2021/10/26 04:06:13;;;;;;;17.43;7.93;;;;;;;8.37;85.74;101944.06;4958255;28;20078;-66
2021/10/26 04:13:37;;;;;;;15.23;7.80;;;;;;;8.25;85.58;101949.53;4958537;29;20042;-66
2021/10/26 04:16:03;;;;;;;22.00;8.10;;;;;;;8.22;85.81;101945.03;4957326;29;20035;-66
2021/10/26 04:18:28;;;;;;;11.53;7.10;;;;;;;8.22;85.84;101949.34;4958466;29;20098;-66
2021/10/26 04:20:54;;;;;;;17.07;7.47;;;;;;;8.17;85.51;101946.50;4957320;29;20390;-66
2021/10/26 04:23:20;;;;;;;20.67;8.13;;;;;;;8.15;85.95;101952.44;4957890;28;20282;-66
2021/10/26 04:25:46;;;;;;;17.40;7.60;;;;;;;8.15;86.00;101953.31;4957667;28;20425;-66
2021/10/26 04:28:11;;;;;;;18.33;7.97;;;;;;;8.15;86.12;101953.31;4954067;29;20047;-66
2021/10/26 04:30:37;;;;;;;16.10;8.00;;;;;;;8.16;85.98;101954.22;4951596;29;20049;-66
2021/10/26 04:33:03;;;;;;;15.47;7.43;;;;;;;8.18;85.92;101960.41;4958102;28;20035;-66
2021/10/26 04:35:29;;;;;;;18.07;8.37;;;;;;;8.16;86.25;101964.66;4957244;28;20062;-66
2021/10/26 04:37:54;;;;;;;19.67;8.03;;;;;;;8.18;86.29;101963.94;4958262;28;20306;-66
2021/10/26 04:40:20;;;;;;;17.40;8.13;;;;;;;8.20;86.38;101971.84;4953122;29;20046;-66
2021/10/26 04:42:45;;;;;;;16.87;8.70;;;;;;;8.21;86.28;101963.19;4951582;28;20053;-66
2021/10/26 04:45:11;;;;;;;20.67;8.80;;;;;;;8.20;86.48;101964.91;4957680;28;20500;-66
2021/10/26 04:47:37;;;;;;;20.80;8.70;;;;;;;8.25;86.48;101962.56;4957250;29;20106;-66
2021/10/26 04:50:04;;;;;;;18.43;8.30;;;;;;;8.27;86.55;101966.16;4957088;29;20039;-66
2021/10/26 04:52:29;;;;;;;21.50;10.33;;;;;;;8.29;86.56;101966.25;4958018;28;20029;-67
2021/10/26 04:54:54;;;;;;;24.07;8.70;;;;;;;8.31;86.73;101969.84;4957925;28;20039;-67
2021/10/26 04:57:20;;;;;;;21.97;10.37;;;;;;;8.31;86.62;101973.34;4958217;29;20065;-67
2021/10/26 04:59:45;;;;;;;24.27;10.07;;;;;;;8.31;86.76;101978.56;4957130;28;20070;-66
2021/10/26 05:02:10;;;;;;;17.10;9.43;;;;;;;8.29;86.54;101981.91;4957086;29;20059;-65
2021/10/26 05:04:35;;;;;;;21.90;10.67;;;;;;;8.29;87.05;101984.50;4956911;29;20370;-66
2021/10/26 05:07:02;;;;;;;21.13;10.77;;;;;;;8.28;86.47;101977.50;4957902;28;20035;-66
2021/10/26 05:09:27;;;;;;;18.20;10.00;;;;;;;8.29;86.75;101984.50;4957655;28;20042;-64
2021/10/26 05:11:52;;;;;;;25.63;11.27;;;;;;;8.29;86.63;101985.41;4941248;29;20031;-66
2021/10/26 05:14:18;;;;;;;18.67;10.47;;;;;;;8.27;86.14;101984.41;4956406;28;20047;-64
2021/10/26 05:16:44;;;;;;;22.23;11.03;;;;;;;8.22;86.54;101981.56;4957706;28;20056;-65
2021/10/26 05:19:10;;;;;;;19.70;10.43;;;;;;;8.20;86.55;101990.09;4957465;28;20031;-66
2021/10/26 05:21:35;;;;;;;22.10;9.97;;;;;;;8.17;86.41;101987.34;4961222;28;20387;-65
2021/10/26 05:24:01;;;;;;;22.07;9.70;;;;;;;8.14;86.48;101998.50;4961307;29;20034;-65
2021/10/26 05:26:26;;;;;;;24.53;10.83;;;;;;;8.13;86.54;101996.69;4965245;28;20026;-65
2021/10/26 05:28:52;;;;;;;18.73;9.77;;;;;;;8.13;86.42;101998.38;4960655;29;20027;-65
2021/10/26 05:31:18;;;;;;;17.83;10.20;;;;;;;8.11;86.47;102001.81;4961209;28;20453;-66
2021/10/26 05:33:43;;;;;;;23.73;11.00;;;;;;;8.09;85.97;102012.97;4959123;28;20027;-65
2021/10/26 05:36:09;;;;;;;20.57;10.23;;;;;;;8.08;86.41;102004.25;4959118;28;20122;-65
2021/10/26 05:38:35;;;;;;;21.33;11.30;;;;;;;8.06;86.56;102008.50;4959793;29;20047;-65
2021/10/26 05:41:01;;;;;;;23.10;10.20;;;;;;;8.04;86.34;102015.31;4960794;28;20078;-65
2021/10/26 05:43:27;;;;;;;26.40;11.27;;;;;;;7.99;86.38;102014.19;4961256;28;20055;-65
2021/10/26 05:45:53;;;;;;;22.30;10.33;;;;;;;7.97;86.21;102024.50;4955997;28;20283;-65
2021/10/26 05:48:19;;;;;;;21.83;10.97;;;;;;;7.95;86.34;102018.31;4925300;29;20027;-65
2021/10/26 05:50:46;;;;;;;21.27;11.10;;;;;;;7.97;86.54;102019.28;4941166;29;20049;-65
2021/10/26 05:53:12;;;;;;;23.40;12.10;;;;;;;7.96;86.33;102027.94;4924956;29;20340;-66
2021/10/26 05:55:38;;;;;;;21.20;11.47;;;;;;;7.95;86.42;102014.78;4951191;29;20019;-65
2021/10/26 05:58:04;;;;;;;22.13;11.03;;;;;;;7.91;86.33;102015.44;4959426;29;20275;-65
2021/10/26 06:00:29;;;;;;;22.43;11.90;;;;;;;7.89;86.43;102007.50;4960556;28;20110;-66
2021/10/26 06:02:55;;;;;;;20.97;11.40;;;;;;;7.84;86.08;102007.25;4960615;28;20170;-66
2021/10/26 06:05:20;;;;;;;20.10;11.73;;;;;;;7.80;86.23;102007.00;4958971;28;20034;-66
2021/10/26 06:07:46;;;;;;;21.00;10.13;;;;;;;7.78;86.11;102000.78;4958817;28;20027;-67
2021/10/26 06:10:11;;;;;;;17.13;10.47;;;;;;;7.74;86.00;101999.72;4957850;28;20054;-66
2021/10/26 06:12:42;;;;;;;17.63;10.50;;;;;;;7.72;86.17;102003.03;4960782;28;20023;-66
2021/10/26 06:15:08;;;;;;;20.53;11.73;;;;;;;7.69;86.28;102007.25;4959704;28;20086;-67
2021/10/26 06:17:33;;;;;;;18.23;10.37;;;;;;;7.71;86.34;102004.72;4960603;29;20102;-66
2021/10/26 06:19:59;;;;;;;19.47;11.37;;;;;;;7.73;86.49;101999.59;4959840;29;20171;-67
2021/10/26 06:22:24;;;;;;;26.90;12.10;;;;;;;7.72;86.53;101998.69;4960743;28;20027;-69
2021/10/26 06:24:49;;;;;;;19.90;10.83;;;;;;;7.74;86.48;102004.94;4959937;29;20050;-66
2021/10/26 06:27:15;;;;;;;20.30;11.53;;;;;;;7.77;86.72;102014.59;4959046;29;20417;-66
2021/10/26 06:29:41;;;;;;;18.57;11.10;;;;;;;7.78;86.83;102019.03;4958793;28;20527;-66
2021/10/26 06:32:06;;;;;;;21.83;11.70;;;;;;;7.78;86.60;102013.81;4958860;28;20043;-66
2021/10/26 06:34:31;;;;;;;25.20;11.03;;;;;;;7.80;86.79;102013.09;4959907;28;20031;-66
2021/10/26 06:36:57;;;;;;;22.57;10.70;;;;;;;7.82;86.88;102018.41;4959593;28;20031;-66
2021/10/26 06:39:22;;;;;;;24.67;10.30;;;;;;;7.83;86.76;102026.31;4959736;28;20031;-67
2021/10/26 06:41:48;;;;;;;22.67;10.97;;;;;;;7.85;86.44;102029.03;4960177;28;20031;-67
2021/10/26 06:44:14;;;;;;;18.77;11.03;;;;;;;7.84;86.75;102033.31;4959443;28;20078;-67
2021/10/26 06:46:39;;;;;;;26.17;10.93;;;;;;;7.87;86.74;102032.63;4958962;28;20027;-66
2021/10/26 06:49:04;;;;;;;23.77;10.70;;;;;;;7.88;86.77;102034.41;4959729;28;20039;-66
2021/10/26 06:51:31;;;;;;;19.87;10.70;;;;;;;7.87;86.78;102027.41;4960010;28;20027;-66
2021/10/26 06:53:57;;;;;;;26.40;11.30;;;;;;;7.89;86.75;102032.69;4959686;28;20297;-66
2021/10/26 06:56:23;;;;;;;23.90;11.37;;;;;;;7.90;86.72;102038.00;4958886;29;20027;-66
2021/10/26 06:58:48;;;;;;;18.60;11.33;;;;;;;7.93;86.88;102027.75;4959372;28;20063;-66
2021/10/26 07:01:13;;;;;;;22.57;10.33;;;;;;;7.98;86.88;102035.84;4958791;28;20102;-67
2021/10/26 07:03:40;;;;;;;22.67;10.73;;;;;;;8.05;86.82;102037.09;4960075;28;20178;-66
2021/10/26 07:06:07;;;;;;;21.87;10.57;;;;;;;8.09;86.86;102044.28;4958873;29;20322;-66
2021/10/26 07:08:32;;;;;;;24.43;11.90;;;;;;;8.12;86.87;102044.47;4956685;29;20122;-66
2021/10/26 07:10:58;;;;;;;18.80;9.80;;;;;;;8.20;87.16;102042.28;4958562;29;20163;-66
2021/10/26 07:13:24;;;;;;;26.10;12.00;;;;;;;8.28;87.01;102041.00;4958084;28;20058;-65
2021/10/26 07:15:50;;;;;;;28.53;12.77;;;;;;;8.37;87.02;102040.66;4959206;28;20042;-65
2021/10/26 07:18:15;;;;;;;20.87;10.10;;;;;;;8.47;86.55;102048.19;4958616;29;20455;-66
2021/10/26 07:20:41;;;;;;;19.83;11.43;;;;;;;8.52;87.01;102048.47;4958534;29;20121;-65
2021/10/26 07:23:06;;;;;;;28.73;12.63;;;;;;;8.57;86.92;102048.72;4958529;29;20038;-65
2021/10/26 07:25:32;;;;;;;25.30;12.27;;;;;;;8.62;86.99;102049.91;4959344;28;20031;-66
2021/10/26 07:27:58;;;;;;;24.67;13.33;;;;;;;8.68;87.04;102050.25;4958218;28;20381;-66
2021/10/26 07:30:28;;;;;;;25.40;13.37;;;;;;;8.71;86.98;102057.34;4958787;28;20414;-66
2021/10/26 07:32:56;;;;;;;27.07;13.20;;;;;;;8.76;86.90;102067.22;4958234;29;20054;-67
2021/10/26 07:35:21;;;;;;;23.70;13.40;;;;;;;8.83;86.93;102063.22;4959038;28;20659;-66
2021/10/26 07:37:47;;;;;;;25.67;14.73;;;;;;;8.89;87.13;102067.88;4959073;28;20041;-66
2021/10/26 07:40:15;;;;;;;31.87;14.33;;;;;;;8.93;86.90;102067.25;4958196;28;20126;-66
2021/10/26 07:42:40;;;;;;;24.80;13.90;;;;;;;8.97;86.83;102063.09;4957893;28;20386;-66
2021/10/26 07:45:08;;;;;;;23.10;13.10;;;;;;;8.99;86.80;102075.44;4958383;28;20033;-67
2021/10/26 07:47:34;;;;;;;24.13;14.90;;;;;;;9.03;86.69;102071.28;4958689;28;20042;-66
2021/10/26 07:50:00;;;;;;;26.50;14.77;;;;;;;9.04;86.72;102060.88;4958458;28;20059;-66
2021/10/26 07:52:26;;;;;;;25.30;13.97;;;;;;;9.09;86.72;102074.19;4958487;28;20162;-65
2021/10/26 07:54:53;;;;;;;22.63;12.53;;;;;;;9.11;86.58;102069.97;4958424;28;20031;-65
2021/10/26 07:57:20;;;;;;;28.17;13.77;;;;;;;9.15;86.21;102071.06;4958377;28;20035;-66
2021/10/26 07:59:46;;;;;;;27.67;14.63;;;;;;;9.16;86.70;102068.50;4958240;28;20027;-65
2021/10/26 08:02:13;;;;;;;22.03;12.93;;;;;;;9.20;86.65;102062.63;4957834;28;20125;-65
2021/10/26 08:04:39;;;;;;;24.90;13.60;;;;;;;9.23;86.46;102068.84;4957443;29;20126;-66
2021/10/26 08:07:08;;;;;;;23.63;11.90;;;;;;;9.26;87.08;102064.66;4957225;29;20170;-65
2021/10/26 08:09:34;;;;;;;23.83;13.60;;;;;;;9.30;86.52;102065.72;4957721;29;20416;-66
2021/10/26 08:11:59;;;;;;;23.80;13.03;;;;;;;9.32;86.49;102062.38;4941599;29;20041;-66
2021/10/26 08:14:25;;;;;;;20.43;12.03;;;;;;;9.39;86.54;102063.59;4956629;28;20454;-65
2021/10/26 08:16:50;;;;;;;27.97;13.63;;;;;;;9.45;86.56;102079.63;4958412;29;20035;-66
2021/10/26 08:19:15;;;;;;;25.20;12.63;;;;;;;9.49;86.64;102084.19;4957939;28;20023;-65
2021/10/26 08:21:41;;;;;;;28.93;12.20;;;;;;;9.57;86.54;102079.38;4958480;28;20027;-65
2021/10/26 08:24:08;;;;;;;21.33;11.50;;;;;;;9.65;86.37;102079.75;4957166;28;20058;-65
2021/10/26 08:29:15;;;;;;;17.43;10.23;;;;;;;9.81;86.02;102064.84;4957926;28;20041;-66
2021/10/26 08:32:10;;;;;;;19.83;12.13;;;;;;;9.82;85.79;102072.78;4958413;28;20302;-65
2021/10/26 08:37:09;;;;;;;20.40;10.67;;;;;;;9.94;85.85;102069.91;4957415;28;20050;-66
2021/10/26 08:39:38;;;;;;;19.23;9.60;;;;;;;10.02;85.83;102070.25;4957337;28;20095;-66
2021/10/26 08:42:05;;;;;;;21.67;10.47;;;;;;;10.06;85.64;102072.22;4958060;28;20027;-66
2021/10/26 08:44:31;;;;;;;20.00;9.77;;;;;;;10.14;85.39;102076.13;4957223;29;20038;-66
2021/10/26 08:46:58;;;;;;;18.63;9.67;;;;;;;10.17;85.40;102065.78;4953475;29;20114;-65
2021/10/26 08:49:24;;;;;;;17.30;8.43;;;;;;;10.23;85.10;102062.63;4937877;29;20043;-67
2021/10/26 08:51:52;;;;;;;16.43;9.60;;;;;;;10.23;84.89;102057.38;4958215;28;20424;-66
2021/10/26 08:54:18;;;;;;;22.70;10.03;;;;;;;10.27;84.86;102063.66;4957938;28;20035;-66
2021/10/26 08:56:43;;;;;;;14.53;8.77;;;;;;;10.27;84.95;102061.94;4961886;28;20035;-66
2021/10/26 08:59:09;;;;;;;17.77;9.40;;;;;;;10.28;84.80;102066.34;4960687;28;20058;-67
2021/10/26 09:01:34;;;;;;;14.93;9.70;;;;;;;10.29;84.92;102062.88;4961227;28;20042;-66
2021/10/26 09:04:11;;;;;;;12.80;8.40;;;;;;;10.36;84.71;102066.72;4961602;28;20019;-66
2021/10/26 09:06:51;;;;;;;14.40;9.30;;;;;;;10.42;84.03;102071.38;4961253;29;20027;-66
2021/10/26 09:09:21;;;;;;;16.10;8.77;;;;;;;10.47;84.45;102055.91;4961373;28;20330;-67
2021/10/26 09:17:26;;;;;;;16.13;8.50;;;;;;;10.63;83.93;102066.28;4961820;29;20114;-66
2021/10/26 09:19:56;;;;;;;18.13;10.40;;;;;;;10.65;83.86;102056.78;4942187;29;20045;-66
2021/10/26 09:22:24;;;;;;;17.67;9.00;;;;;;;10.69;83.54;102063.97;4942589;29;20461;-65
2021/10/26 09:24:57;;;;;;;17.33;9.87;;;;;;;10.68;83.70;102072.66;4942152;28;20020;-66
2021/10/26 09:27:24;;;;;;;16.97;10.27;;;;;;;10.68;83.53;102079.59;4954810;28;20027;-66
2021/10/26 09:29:50;;;;;;;13.90;9.07;;;;;;;10.70;83.38;102081.47;4960170;29;20031;-66
2021/10/26 09:32:22;;;;;;;20.80;9.67;;;;;;;10.67;82.96;102080.44;4959557;29;20370;-65
2021/10/26 09:34:50;;;;;;;18.07;10.47;;;;;;;10.68;83.60;102088.38;4959756;29;20118;-66
2021/10/26 09:37:17;;;;;;;18.40;11.07;;;;;;;10.65;83.60;102082.97;4960673;28;20027;-65
2021/10/26 09:39:55;;;;;;;21.40;10.60;;;;;;;10.69;83.64;102089.25;4953170;28;20058;-66
2021/10/26 09:42:20;;;;;;;15.97;11.17;;;;;;;10.65;83.70;102075.09;4958921;28;20078;-66
2021/10/26 09:44:49;;;;;;;14.70;10.17;;;;;;;10.64;84.03;102081.19;4961376;29;20101;-66
2021/10/26 09:47:24;;;;;;;19.47;10.07;;;;;;;10.64;83.88;102075.06;4960803;28;20028;-66
2021/10/26 09:49:52;;;;;;;18.73;10.93;;;;;;;10.60;84.01;102071.38;4961039;28;20031;-65
2021/10/26 09:52:22;;;;;;;20.73;11.60;;;;;;;10.55;84.27;102065.94;4959604;28;20034;-65
2021/10/26 09:55:25;;;;;;;19.83;11.87;;;;;;;10.59;84.27;102064.34;4960816;28;20037;-65
2021/10/26 09:57:57;;;;;;;20.43;11.77;;;;;;;10.60;84.50;102070.47;4960472;29;20034;-65
2021/10/26 10:00:26;;;;;;;19.03;11.53;;;;;;;10.58;84.49;102060.81;4960668;28;20035;-65
2021/10/26 10:03:00;;;;;;;18.03;11.57;;;;;;;10.61;84.66;102057.47;4960933;28;20050;-65
2021/10/26 10:05:27;;;;;;;20.47;11.83;;;;;;;10.62;84.57;102055.72;4960799;28;20038;-65
2021/10/26 10:07:53;;;;;;;18.80;10.83;;;;;;;10.73;84.46;102065.00;4960779;28;20023;-65
2021/10/26 10:10:18;;;;;;;16.53;9.47;;;;;;;10.76;84.22;102057.28;4960279;28;20303;-65
2021/10/26 10:12:45;;;;;;;13.37;10.33;;;;;;;10.80;84.34;102058.31;4959948;29;20050;-66
2021/10/26 10:15:12;;;;;;;13.53;10.53;;;;;;;10.85;84.51;102046.34;4959903;28;20114;-65
2021/10/26 10:17:38;;;;;;;13.80;8.30;;;;;;;10.93;84.36;102044.97;4960933;29;20027;-65
2021/10/26 10:20:06;;;;;;;14.67;9.97;;;;;;;11.04;84.53;102045.47;4959429;29;20030;-65
2021/10/26 10:22:31;;;;;;;14.83;10.20;;;;;;;11.23;84.09;102044.59;4960737;28;20034;-66
2021/10/26 10:25:00;;;;;;;11.27;7.40;;;;;;;11.39;83.51;102051.41;4960139;29;20298;-65
2021/10/26 10:27:27;;;;;;;12.50;9.70;;;;;;;11.46;82.97;102046.44;4959097;28;20055;-65
2021/10/26 10:29:52;;;;;;;10.13;7.53;;;;;;;11.46;82.13;102046.44;4959043;29;20031;-65
2021/10/26 10:32:21;;;;;;;16.33;8.47;;;;;;;11.49;82.61;102044.84;4960433;28;20023;-65
2021/10/26 10:34:47;;;;;;;13.67;9.20;;;;;;;11.52;82.34;102051.94;4959550;29;20406;-66
2021/10/26 10:37:13;;;;;;;15.27;10.03;;;;;;;11.55;82.11;102046.81;4959437;29;20114;-66
2021/10/26 10:39:38;;;;;;;16.17;9.97;;;;;;;11.53;82.16;102052.00;4959463;29;20103;-66
2021/10/26 10:42:18;;;;;;;13.20;9.90;;;;;;;11.52;82.14;102058.06;4943060;29;20029;-65
2021/10/26 10:44:44;;;;;;;14.33;10.33;;;;;;;11.51;82.24;102048.41;4959345;28;20039;-65
2021/10/26 10:47:40;;;;;;;14.47;9.90;;;;;;;11.56;82.03;102043.38;4959873;28;20031;-66
2021/10/26 10:50:30;;;;;;;15.57;10.67;;;;;;;11.62;81.71;102034.84;4959590;28;20110;-66
2021/10/26 10:53:11;;;;;;;12.43;9.10;;;;;;;11.61;81.61;102043.56;4959882;29;20354;-66
2021/10/26 10:55:39;;;;;;;12.77;9.80;;;;;;;11.57;81.84;102034.66;4959894;28;20059;-65
2021/10/26 10:58:29;;;;;;;12.17;9.87;;;;;;;11.59;81.73;102042.63;4959682;28;20034;-67
2021/10/26 11:01:21;;;;;;;11.43;8.33;;;;;;;11.70;81.21;102051.81;4959249;28;20061;-65
2021/10/26 11:03:47;;;;;;;11.87;7.23;;;;;;;11.71;80.59;102045.75;4959982;28;20058;-67
2021/10/26 11:06:41;;;;;;;14.70;7.53;;;;;;;11.86;80.67;102050.78;4959461;28;20075;-66
2021/10/26 11:09:25;;;;;;;12.03;6.57;;;;;;;11.94;79.83;102062.50;4958284;29;20394;-65
2021/10/26 11:12:17;;;;;;;13.47;6.60;;;;;;;11.93;79.52;102049.28;4959754;28;20111;-66
2021/10/26 11:14:45;;;;;;;13.37;6.33;;;;;;;11.96;79.69;102052.94;4958753;28;20051;-67
2021/10/26 11:17:32;;;;;;;15.37;6.67;;;;;;;11.95;78.71;102045.91;4958899;28;20035;-66
2021/10/26 11:20:03;;;;;;;;;;;;;;;11.98;78.74;102045.16;4959563;28;20284;-67
2021/10/26 11:22:51;;;;;;;12.77;7.43;;;;;;;11.96;78.31;102050.31;4959663;28;19910;-67
2021/10/26 11:25:16;;;;;;;16.00;7.97;;;;;;;11.94;78.30;102038.88;4959881;28;20027;-67
2021/10/26 11:27:42;;;;;;;16.63;9.83;;;;;;;11.88;78.73;102037.72;4959263;28;20305;-66
2021/10/26 11:30:29;;;;;;;16.47;8.30;;;;;;;11.89;79.32;102034.25;4957772;29;20034;-65
2021/10/26 11:33:13;;;;;;;14.30;8.90;;;;;;;11.89;79.08;102031.63;4959275;28;20122;-67
2021/10/26 11:36:04;;;;;;;14.93;7.67;;;;;;;11.95;78.10;102038.03;4958559;28;20034;-68